Portada
METAR-TAF:

METAR-TAF

Aeroports :

Santander, Espanya

latitud: 43-26N, longitud: 003-49W, altitud: 6 m

Observació

L'informe es va fer fa 30 minuts, a les 21:00 UTC
Vent 5 kt del Est, variant entre Nord-Est i Est/Sud-Est
Temperatura 18°C
Humitat 83%
Pressió 1019 hPa
Visibilitat 10 km o més
sense núvols per sota de 1500 mi sense presència de cumulonimbus.

METAR: LEXJ 232100Z 08005KT 050V120 CAVOK 18/15 Q1019

Hora: 23:30 (21:30 UTC)

Pronòstic

L'informe es va fer fa 1 hora i 30 minuts, a les 20:00 UTC
Pronòstic vàlid del 23 a les 21 UTC al 24 a les 21 UTC
Vent 5 kt del Est/Sud-Est
Visibilitat 10 km o més
sense núvols per sota de 1500 mi sense presència de cumulonimbus.
Temporalment
l' 24 a les 11 UTC al 24 a les 18 UTC
Vent 15 kt del Nord-Est

TAF: LEXJ 232000Z 2321/2421 11005KT CAVOK TX25/2414Z TN13/2405Z TEMPO 2411/2418 05015KT

Observacions i pronòstics meteorològics de més de 4000 aeroports (METAR i TAF).

Les estacions disponibles són els punts grocs i vermells al mapa.

Posi el ratolí al punt desitjat per veure el nom de l'estació.

Feu clic per veure les observacions i els pronòstics meteorològics.

Per canviar el mapa: feu clic els botons verds amb una creu de color negre per apropar; al botó verd amb un guió per allunyar la imatge; o en les fletxes verdes per a mapes adjacents.


METAR-TAF: